sensor_id;sensor_type;location;lat;lon;timestamp;temperature;humidity
24176;DHT22;12324;48.146;11.502;2022-08-21T00:01:43;16.40;99.90
24176;DHT22;12324;48.146;11.502;2022-08-21T00:04:10;16.40;99.90
24176;DHT22;12324;48.146;11.502;2022-08-21T00:06:46;16.40;99.90
24176;DHT22;12324;48.146;11.502;2022-08-21T00:09:13;16.40;99.90
24176;DHT22;12324;48.146;11.502;2022-08-21T00:11:39;16.40;99.90
24176;DHT22;12324;48.146;11.502;2022-08-21T00:14:08;16.30;99.90
24176;DHT22;12324;48.146;11.502;2022-08-21T00:16:35;16.30;99.90
24176;DHT22;12324;48.146;11.502;2022-08-21T00:19:02;16.30;99.90
24176;DHT22;12324;48.146;11.502;2022-08-21T00:21:30;16.30;99.90
24176;DHT22;12324;48.146;11.502;2022-08-21T00:23:56;16.20;99.90
24176;DHT22;12324;48.146;11.502;2022-08-21T00:26:23;16.20;99.90
24176;DHT22;12324;48.146;11.502;2022-08-21T00:28:50;16.20;99.90
24176;DHT22;12324;48.146;11.502;2022-08-21T00:31:17;16.20;99.90
24176;DHT22;12324;48.146;11.502;2022-08-21T00:33:45;16.20;99.90
24176;DHT22;12324;48.146;11.502;2022-08-21T00:36:12;16.10;99.90
24176;DHT22;12324;48.146;11.502;2022-08-21T00:38:40;16.10;99.90
24176;DHT22;12324;48.146;11.502;2022-08-21T00:41:09;16.10;99.90
24176;DHT22;12324;48.146;11.502;2022-08-21T00:43:56;16.10;99.90
24176;DHT22;12324;48.146;11.502;2022-08-21T00:46:23;16.10;99.90
24176;DHT22;12324;48.146;11.502;2022-08-21T00:48:54;16.00;99.90
24176;DHT22;12324;48.146;11.502;2022-08-21T00:51:30;16.00;99.90
24176;DHT22;12324;48.146;11.502;2022-08-21T00:54:05;16.00;99.90
24176;DHT22;12324;48.146;11.502;2022-08-21T00:56:39;16.00;99.90
24176;DHT22;12324;48.146;11.502;2022-08-21T00:59:09;15.90;99.90
24176;DHT22;12324;48.146;11.502;2022-08-21T01:01:36;16.00;99.90
24176;DHT22;12324;48.146;11.502;2022-08-21T01:04:03;15.90;99.90
24176;DHT22;12324;48.146;11.502;2022-08-21T01:06:30;15.90;99.90
24176;DHT22;12324;48.146;11.502;2022-08-21T01:08:57;15.90;99.90
24176;DHT22;12324;48.146;11.502;2022-08-21T01:11:24;15.90;99.90
24176;DHT22;12324;48.146;11.502;2022-08-21T01:13:51;15.80;99.90
24176;DHT22;12324;48.146;11.502;2022-08-21T01:16:20;15.80;99.90
24176;DHT22;12324;48.146;11.502;2022-08-21T01:18:48;15.80;99.90
24176;DHT22;12324;48.146;11.502;2022-08-21T01:21:19;15.80;99.90
24176;DHT22;12324;48.146;11.502;2022-08-21T01:23:50;15.70;99.90
24176;DHT22;12324;48.146;11.502;2022-08-21T01:26:20;15.70;99.90
24176;DHT22;12324;48.146;11.502;2022-08-21T01:31:34;15.70;99.90
24176;DHT22;12324;48.146;11.502;2022-08-21T01:34:01;15.70;99.90
24176;DHT22;12324;48.146;11.502;2022-08-21T01:36:28;15.70;99.90
24176;DHT22;12324;48.146;11.502;2022-08-21T01:38:55;15.60;99.90
24176;DHT22;12324;48.146;11.502;2022-08-21T01:41:22;15.60;99.90
24176;DHT22;12324;48.146;11.502;2022-08-21T01:43:49;15.60;99.90
24176;DHT22;12324;48.146;11.502;2022-08-21T01:46:16;15.50;99.90
24176;DHT22;12324;48.146;11.502;2022-08-21T01:48:43;15.50;99.90
24176;DHT22;12324;48.146;11.502;2022-08-21T01:51:10;15.50;99.90
24176;DHT22;12324;48.146;11.502;2022-08-21T01:53:37;15.50;99.90
24176;DHT22;12324;48.146;11.502;2022-08-21T01:56:06;15.50;99.90
24176;DHT22;12324;48.146;11.502;2022-08-21T01:58:39;15.50;99.90
24176;DHT22;12324;48.146;11.502;2022-08-21T02:01:06;15.50;99.90
24176;DHT22;12324;48.146;11.502;2022-08-21T02:03:33;15.50;99.90
24176;DHT22;12324;48.146;11.502;2022-08-21T02:06:03;15.40;99.90
24176;DHT22;12324;48.146;11.502;2022-08-21T02:08:31;15.40;99.90
24176;DHT22;12324;48.146;11.502;2022-08-21T02:10:58;15.40;99.90
24176;DHT22;12324;48.146;11.502;2022-08-21T02:13:25;15.40;99.90
24176;DHT22;12324;48.146;11.502;2022-08-21T02:15:51;15.40;99.90
24176;DHT22;12324;48.146;11.502;2022-08-21T02:18:18;15.40;99.90
24176;DHT22;12324;48.146;11.502;2022-08-21T02:20:47;15.40;99.90
24176;DHT22;12324;48.146;11.502;2022-08-21T02:23:21;15.40;99.90
24176;DHT22;12324;48.146;11.502;2022-08-21T02:25:56;15.40;99.90
24176;DHT22;12324;48.146;11.502;2022-08-21T02:28:23;15.40;99.90
24176;DHT22;12324;48.146;11.502;2022-08-21T02:30:51;15.40;99.90
24176;DHT22;12324;48.146;11.502;2022-08-21T02:33:19;15.30;99.90
24176;DHT22;12324;48.146;11.502;2022-08-21T02:35:47;15.30;99.90
24176;DHT22;12324;48.146;11.502;2022-08-21T02:38:16;15.30;99.90
24176;DHT22;12324;48.146;11.502;2022-08-21T02:40:45;15.30;99.90
24176;DHT22;12324;48.146;11.502;2022-08-21T02:43:14;15.20;99.90
24176;DHT22;12324;48.146;11.502;2022-08-21T02:45:43;15.20;99.90
24176;DHT22;12324;48.146;11.502;2022-08-21T02:48:15;15.20;99.90
24176;DHT22;12324;48.146;11.502;2022-08-21T02:50:50;15.20;99.90
24176;DHT22;12324;48.146;11.502;2022-08-21T02:53:17;15.20;99.90
24176;DHT22;12324;48.146;11.502;2022-08-21T02:55:46;15.10;99.90
24176;DHT22;12324;48.146;11.502;2022-08-21T02:58:17;15.10;99.90
24176;DHT22;12324;48.146;11.502;2022-08-21T03:00:44;15.00;99.90
24176;DHT22;12324;48.146;11.502;2022-08-21T03:03:11;15.10;99.90
24176;DHT22;12324;48.146;11.502;2022-08-21T03:05:40;15.10;99.90
24176;DHT22;12324;48.146;11.502;2022-08-21T03:08:09;15.10;99.90
24176;DHT22;12324;48.146;11.502;2022-08-21T03:10:39;15.10;99.90
24176;DHT22;12324;48.146;11.502;2022-08-21T03:13:09;15.00;99.90
24176;DHT22;12324;48.146;11.502;2022-08-21T03:15:36;15.00;99.90
24176;DHT22;12324;48.146;11.502;2022-08-21T03:18:04;15.00;99.90
24176;DHT22;12324;48.146;11.502;2022-08-21T03:20:32;15.00;99.90
24176;DHT22;12324;48.146;11.502;2022-08-21T03:22:59;15.00;99.90
24176;DHT22;12324;48.146;11.502;2022-08-21T03:25:28;15.00;99.90
24176;DHT22;12324;48.146;11.502;2022-08-21T03:28:09;15.00;99.90
24176;DHT22;12324;48.146;11.502;2022-08-21T03:30:41;15.00;99.90
24176;DHT22;12324;48.146;11.502;2022-08-21T03:33:08;15.00;99.90
24176;DHT22;12324;48.146;11.502;2022-08-21T03:35:38;14.90;99.90
24176;DHT22;12324;48.146;11.502;2022-08-21T03:38:05;14.90;99.90
24176;DHT22;12324;48.146;11.502;2022-08-21T03:40:31;14.90;99.90
24176;DHT22;12324;48.146;11.502;2022-08-21T03:42:58;14.90;99.90
24176;DHT22;12324;48.146;11.502;2022-08-21T03:45:25;14.90;99.90
24176;DHT22;12324;48.146;11.502;2022-08-21T03:47:55;14.90;99.90
24176;DHT22;12324;48.146;11.502;2022-08-21T03:50:24;14.80;99.90
24176;DHT22;12324;48.146;11.502;2022-08-21T03:52:51;14.80;99.90
24176;DHT22;12324;48.146;11.502;2022-08-21T03:55:19;14.80;99.90
24176;DHT22;12324;48.146;11.502;2022-08-21T03:57:45;14.80;99.90
24176;DHT22;12324;48.146;11.502;2022-08-21T04:00:13;14.70;99.90
24176;DHT22;12324;48.146;11.502;2022-08-21T04:02:42;14.70;99.90
24176;DHT22;12324;48.146;11.502;2022-08-21T04:05:11;14.70;99.90
24176;DHT22;12324;48.146;11.502;2022-08-21T04:07:38;14.60;99.90
24176;DHT22;12324;48.146;11.502;2022-08-21T04:10:06;14.60;99.90
24176;DHT22;12324;48.146;11.502;2022-08-21T04:12:33;14.60;99.90
24176;DHT22;12324;48.146;11.502;2022-08-21T04:15:00;14.60;99.90
24176;DHT22;12324;48.146;11.502;2022-08-21T04:17:28;14.60;99.90
24176;DHT22;12324;48.146;11.502;2022-08-21T04:19:54;14.60;99.90
24176;DHT22;12324;48.146;11.502;2022-08-21T04:22:21;14.60;99.90
24176;DHT22;12324;48.146;11.502;2022-08-21T04:24:48;14.60;99.90
24176;DHT22;12324;48.146;11.502;2022-08-21T04:27:16;14.60;99.90
24176;DHT22;12324;48.146;11.502;2022-08-21T04:29:42;14.70;99.90
24176;DHT22;12324;48.146;11.502;2022-08-21T04:32:09;14.60;99.90
24176;DHT22;12324;48.146;11.502;2022-08-21T04:34:36;14.70;99.90
24176;DHT22;12324;48.146;11.502;2022-08-21T04:37:04;14.70;99.90
24176;DHT22;12324;48.146;11.502;2022-08-21T04:39:30;14.70;99.90
24176;DHT22;12324;48.146;11.502;2022-08-21T04:41:57;14.70;99.90
24176;DHT22;12324;48.146;11.502;2022-08-21T04:44:24;14.70;99.90
24176;DHT22;12324;48.146;11.502;2022-08-21T04:46:51;14.70;99.90
24176;DHT22;12324;48.146;11.502;2022-08-21T04:49:17;14.70;99.90
24176;DHT22;12324;48.146;11.502;2022-08-21T04:51:44;14.70;99.90
24176;DHT22;12324;48.146;11.502;2022-08-21T04:54:22;14.70;99.90
24176;DHT22;12324;48.146;11.502;2022-08-21T04:56:52;14.70;99.90
24176;DHT22;12324;48.146;11.502;2022-08-21T04:59:24;14.70;99.90
24176;DHT22;12324;48.146;11.502;2022-08-21T05:01:53;14.70;99.90
24176;DHT22;12324;48.146;11.502;2022-08-21T05:04:27;14.70;99.90
24176;DHT22;12324;48.146;11.502;2022-08-21T05:06:58;14.70;99.90
24176;DHT22;12324;48.146;11.502;2022-08-21T05:09:27;14.70;99.90
24176;DHT22;12324;48.146;11.502;2022-08-21T05:11:54;14.70;99.90
24176;DHT22;12324;48.146;11.502;2022-08-21T05:14:21;14.70;99.90
24176;DHT22;12324;48.146;11.502;2022-08-21T05:16:48;14.80;99.90
24176;DHT22;12324;48.146;11.502;2022-08-21T05:19:15;14.80;99.90
24176;DHT22;12324;48.146;11.502;2022-08-21T05:21:43;14.80;99.90
24176;DHT22;12324;48.146;11.502;2022-08-21T05:24:11;14.90;99.90
24176;DHT22;12324;48.146;11.502;2022-08-21T05:26:37;14.90;99.90
24176;DHT22;12324;48.146;11.502;2022-08-21T05:29:14;15.00;99.90
24176;DHT22;12324;48.146;11.502;2022-08-21T05:31:42;15.00;99.90
24176;DHT22;12324;48.146;11.502;2022-08-21T05:34:09;15.10;99.90
24176;DHT22;12324;48.146;11.502;2022-08-21T05:36:36;15.10;99.90
24176;DHT22;12324;48.146;11.502;2022-08-21T05:39:03;15.10;99.90
24176;DHT22;12324;48.146;11.502;2022-08-21T05:41:30;15.20;99.90
24176;DHT22;12324;48.146;11.502;2022-08-21T05:43:59;15.30;99.90
24176;DHT22;12324;48.146;11.502;2022-08-21T05:46:26;15.40;99.90
24176;DHT22;12324;48.146;11.502;2022-08-21T05:48:53;15.40;99.90
24176;DHT22;12324;48.146;11.502;2022-08-21T05:51:20;15.50;99.90
24176;DHT22;12324;48.146;11.502;2022-08-21T05:53:46;15.50;99.90
24176;DHT22;12324;48.146;11.502;2022-08-21T05:56:14;15.50;99.90
24176;DHT22;12324;48.146;11.502;2022-08-21T05:58:41;15.60;99.90
24176;DHT22;12324;48.146;11.502;2022-08-21T06:01:08;15.70;99.90
24176;DHT22;12324;48.146;11.502;2022-08-21T06:03:38;15.80;99.90
24176;DHT22;12324;48.146;11.502;2022-08-21T06:06:05;16.00;99.90
24176;DHT22;12324;48.146;11.502;2022-08-21T06:08:32;16.00;99.90
24176;DHT22;12324;48.146;11.502;2022-08-21T06:11:02;16.10;99.90
24176;DHT22;12324;48.146;11.502;2022-08-21T06:13:29;16.20;99.90
24176;DHT22;12324;48.146;11.502;2022-08-21T06:16:04;16.20;99.90
24176;DHT22;12324;48.146;11.502;2022-08-21T06:18:32;16.30;99.90
24176;DHT22;12324;48.146;11.502;2022-08-21T06:20:58;16.40;99.90
24176;DHT22;12324;48.146;11.502;2022-08-21T11:41:54;23.20;99.90
24176;DHT22;12324;48.146;11.502;2022-08-21T11:44:40;22.90;99.90
24176;DHT22;12324;48.146;11.502;2022-08-21T11:47:18;22.80;99.90
24176;DHT22;12324;48.146;11.502;2022-08-21T11:50:47;22.80;99.90
24176;DHT22;12324;48.146;11.502;2022-08-21T12:50:06;23.30;99.90
24176;DHT22;12324;48.146;11.502;2022-08-21T12:52:35;26.10;99.90
24176;DHT22;12324;48.146;11.502;2022-08-21T12:55:06;25.70;99.90
24176;DHT22;12324;48.146;11.502;2022-08-21T12:57:36;25.50;99.90
24176;DHT22;12324;48.146;11.502;2022-08-21T13:00:07;25.30;99.90
24176;DHT22;12324;48.146;11.502;2022-08-21T13:02:43;25.10;99.90
24176;DHT22;12324;48.146;11.502;2022-08-21T13:05:15;25.10;99.90
24176;DHT22;12324;48.146;11.502;2022-08-21T13:07:47;25.10;99.90
24176;DHT22;12324;48.146;11.502;2022-08-21T13:20:25;25.80;99.90
24176;DHT22;12324;48.146;11.502;2022-08-21T13:22:53;26.10;99.90
24176;DHT22;12324;48.146;11.502;2022-08-21T13:25:26;25.70;99.90
24176;DHT22;12324;48.146;11.502;2022-08-21T13:28:12;25.60;99.90
24176;DHT22;12324;48.146;11.502;2022-08-21T13:30:44;25.50;99.90
24176;DHT22;12324;48.146;11.502;2022-08-21T13:33:14;25.50;99.90
24176;DHT22;12324;48.146;11.502;2022-08-21T14:11:21;26.20;99.90
24176;DHT22;12324;48.146;11.502;2022-08-21T14:26:50;27.40;99.90
24176;DHT22;12324;48.146;11.502;2022-08-21T14:29:22;27.10;99.90
24176;DHT22;12324;48.146;11.502;2022-08-21T14:31:58;26.80;99.90
24176;DHT22;12324;48.146;11.502;2022-08-21T14:34:27;27.00;99.90
24176;DHT22;12324;48.146;11.502;2022-08-21T14:37:01;27.10;99.90
24176;DHT22;12324;48.146;11.502;2022-08-21T14:39:28;26.90;99.90
24176;DHT22;12324;48.146;11.502;2022-08-21T14:41:55;26.90;99.90
24176;DHT22;12324;48.146;11.502;2022-08-21T14:44:23;26.80;99.90
24176;DHT22;12324;48.146;11.502;2022-08-21T14:46:50;26.70;99.90
24176;DHT22;12324;48.146;11.502;2022-08-21T14:49:23;27.10;99.90
24176;DHT22;12324;48.146;11.502;2022-08-21T14:51:52;27.20;99.90
24176;DHT22;12324;48.146;11.502;2022-08-21T14:59:26;27.30;99.90
24176;DHT22;12324;48.146;11.502;2022-08-21T15:01:53;27.40;99.90
24176;DHT22;12324;48.146;11.502;2022-08-21T16:23:16;27.20;99.90
24176;DHT22;12324;48.146;11.502;2022-08-21T16:25:43;27.90;89.70
24176;DHT22;12324;48.146;11.502;2022-08-21T16:28:13;27.80;91.20
24176;DHT22;12324;48.146;11.502;2022-08-21T16:47:59;27.90;91.20
24176;DHT22;12324;48.146;11.502;2022-08-21T16:50:26;29.70;76.40
24176;DHT22;12324;48.146;11.502;2022-08-21T16:52:53;29.50;77.30
24176;DHT22;12324;48.146;11.502;2022-08-21T16:55:20;29.50;80.40
24176;DHT22;12324;48.146;11.502;2022-08-21T16:57:46;29.50;79.50
24176;DHT22;12324;48.146;11.502;2022-08-21T17:00:13;29.20;79.80
24176;DHT22;12324;48.146;11.502;2022-08-21T17:02:47;29.00;82.70
24176;DHT22;12324;48.146;11.502;2022-08-21T17:05:15;29.10;84.90
24176;DHT22;12324;48.146;11.502;2022-08-21T17:07:43;29.20;81.80
24176;DHT22;12324;48.146;11.502;2022-08-21T17:10:12;29.20;83.60
24176;DHT22;12324;48.146;11.502;2022-08-21T17:12:41;29.00;82.30
24176;DHT22;12324;48.146;11.502;2022-08-21T17:15:17;28.90;81.70
24176;DHT22;12324;48.146;11.502;2022-08-21T17:17:47;28.90;81.50
24176;DHT22;12324;48.146;11.502;2022-08-21T17:20:14;28.70;82.00
24176;DHT22;12324;48.146;11.502;2022-08-21T17:22:42;28.70;82.20
24176;DHT22;12324;48.146;11.502;2022-08-21T17:25:09;28.60;80.70
24176;DHT22;12324;48.146;11.502;2022-08-21T17:27:36;28.30;81.90
24176;DHT22;12324;48.146;11.502;2022-08-21T17:30:05;28.30;81.90
24176;DHT22;12324;48.146;11.502;2022-08-21T17:32:32;28.20;82.20
24176;DHT22;12324;48.146;11.502;2022-08-21T17:34:59;27.90;82.40
24176;DHT22;12324;48.146;11.502;2022-08-21T17:37:25;27.50;86.90
24176;DHT22;12324;48.146;11.502;2022-08-21T17:39:55;26.90;88.50
24176;DHT22;12324;48.146;11.502;2022-08-21T17:42:23;26.40;90.50
24176;DHT22;12324;48.146;11.502;2022-08-21T17:44:51;26.00;92.50
24176;DHT22;12324;48.146;11.502;2022-08-21T17:47:18;25.70;93.10
24176;DHT22;12324;48.146;11.502;2022-08-21T17:49:44;25.30;94.10
24176;DHT22;12324;48.146;11.502;2022-08-21T17:52:11;25.00;96.60
24176;DHT22;12324;48.146;11.502;2022-08-21T17:54:38;24.70;97.50
24176;DHT22;12324;48.146;11.502;2022-08-21T17:57:07;24.50;99.60
24176;DHT22;12324;48.146;11.502;2022-08-21T17:59:38;24.30;99.90
24176;DHT22;12324;48.146;11.502;2022-08-21T18:02:05;24.00;99.90
24176;DHT22;12324;48.146;11.502;2022-08-21T18:04:45;23.80;99.90
24176;DHT22;12324;48.146;11.502;2022-08-21T18:07:17;23.60;99.90
24176;DHT22;12324;48.146;11.502;2022-08-21T18:09:59;23.30;99.90
24176;DHT22;12324;48.146;11.502;2022-08-21T18:12:26;23.10;99.90
24176;DHT22;12324;48.146;11.502;2022-08-21T18:14:53;23.00;99.90
24176;DHT22;12324;48.146;11.502;2022-08-21T18:17:21;22.80;99.90
24176;DHT22;12324;48.146;11.502;2022-08-21T18:19:49;22.60;99.90
24176;DHT22;12324;48.146;11.502;2022-08-21T18:22:16;22.30;99.90
24176;DHT22;12324;48.146;11.502;2022-08-21T18:24:42;22.10;99.90
24176;DHT22;12324;48.146;11.502;2022-08-21T18:27:11;22.00;99.90
24176;DHT22;12324;48.146;11.502;2022-08-21T18:29:38;21.80;99.90
24176;DHT22;12324;48.146;11.502;2022-08-21T18:32:17;21.60;99.90
24176;DHT22;12324;48.146;11.502;2022-08-21T18:34:58;21.40;99.90
24176;DHT22;12324;48.146;11.502;2022-08-21T18:37:25;21.20;99.90
24176;DHT22;12324;48.146;11.502;2022-08-21T18:39:52;21.00;99.90
24176;DHT22;12324;48.146;11.502;2022-08-21T18:42:18;20.90;99.90
24176;DHT22;12324;48.146;11.502;2022-08-21T18:44:57;20.70;99.90
24176;DHT22;12324;48.146;11.502;2022-08-21T18:47:27;20.50;99.90
24176;DHT22;12324;48.146;11.502;2022-08-21T18:49:58;20.40;99.90
24176;DHT22;12324;48.146;11.502;2022-08-21T18:52:24;20.20;99.90
24176;DHT22;12324;48.146;11.502;2022-08-21T18:54:54;20.10;99.90
24176;DHT22;12324;48.146;11.502;2022-08-21T18:57:22;19.90;99.90
24176;DHT22;12324;48.146;11.502;2022-08-21T18:59:50;19.90;99.90
24176;DHT22;12324;48.146;11.502;2022-08-21T19:02:17;19.80;99.90
24176;DHT22;12324;48.146;11.502;2022-08-21T19:04:44;19.70;99.90
24176;DHT22;12324;48.146;11.502;2022-08-21T19:07:14;19.60;99.90
24176;DHT22;12324;48.146;11.502;2022-08-21T19:09:42;19.50;99.90
24176;DHT22;12324;48.146;11.502;2022-08-21T19:12:29;19.40;99.90
24176;DHT22;12324;48.146;11.502;2022-08-21T19:14:57;19.30;99.90
24176;DHT22;12324;48.146;11.502;2022-08-21T19:17:24;19.30;99.90
24176;DHT22;12324;48.146;11.502;2022-08-21T19:20:00;19.20;99.90
24176;DHT22;12324;48.146;11.502;2022-08-21T19:22:29;19.10;99.90
24176;DHT22;12324;48.146;11.502;2022-08-21T19:24:56;19.00;99.90
24176;DHT22;12324;48.146;11.502;2022-08-21T19:27:23;18.90;99.90
24176;DHT22;12324;48.146;11.502;2022-08-21T19:29:50;18.80;99.90
24176;DHT22;12324;48.146;11.502;2022-08-21T19:32:18;18.70;99.90
24176;DHT22;12324;48.146;11.502;2022-08-21T19:34:46;18.70;99.90
24176;DHT22;12324;48.146;11.502;2022-08-21T19:37:16;18.60;99.90
24176;DHT22;12324;48.146;11.502;2022-08-21T19:39:45;18.50;99.90
24176;DHT22;12324;48.146;11.502;2022-08-21T19:42:16;18.40;99.90
24176;DHT22;12324;48.146;11.502;2022-08-21T19:44:47;18.40;99.90
24176;DHT22;12324;48.146;11.502;2022-08-21T19:47:19;18.30;99.90
24176;DHT22;12324;48.146;11.502;2022-08-21T19:49:51;18.30;99.90
24176;DHT22;12324;48.146;11.502;2022-08-21T19:52:20;18.20;99.90
24176;DHT22;12324;48.146;11.502;2022-08-21T19:54:47;18.10;99.90
24176;DHT22;12324;48.146;11.502;2022-08-21T19:57:15;18.10;99.90
24176;DHT22;12324;48.146;11.502;2022-08-21T19:59:42;18.10;99.90
24176;DHT22;12324;48.146;11.502;2022-08-21T20:02:11;18.00;99.90
24176;DHT22;12324;48.146;11.502;2022-08-21T20:04:38;17.90;99.90
24176;DHT22;12324;48.146;11.502;2022-08-21T20:07:19;17.90;99.90
24176;DHT22;12324;48.146;11.502;2022-08-21T20:10:06;17.80;99.90
24176;DHT22;12324;48.146;11.502;2022-08-21T20:12:36;17.80;99.90
24176;DHT22;12324;48.146;11.502;2022-08-21T20:15:03;17.80;99.90
24176;DHT22;12324;48.146;11.502;2022-08-21T20:17:50;17.70;99.90
24176;DHT22;12324;48.146;11.502;2022-08-21T20:20:18;17.70;99.90
24176;DHT22;12324;48.146;11.502;2022-08-21T20:22:45;17.70;99.90
24176;DHT22;12324;48.146;11.502;2022-08-21T20:25:11;17.70;99.90
24176;DHT22;12324;48.146;11.502;2022-08-21T20:27:39;17.70;99.90
24176;DHT22;12324;48.146;11.502;2022-08-21T20:30:07;17.60;99.90
24176;DHT22;12324;48.146;11.502;2022-08-21T20:32:35;17.70;99.90
24176;DHT22;12324;48.146;11.502;2022-08-21T20:35:04;17.70;99.90
24176;DHT22;12324;48.146;11.502;2022-08-21T20:37:37;17.60;99.90
24176;DHT22;12324;48.146;11.502;2022-08-21T20:40:09;17.60;99.90
24176;DHT22;12324;48.146;11.502;2022-08-21T20:42:38;17.60;99.90
24176;DHT22;12324;48.146;11.502;2022-08-21T20:45:06;17.50;99.90
24176;DHT22;12324;48.146;11.502;2022-08-21T20:47:35;17.60;99.90
24176;DHT22;12324;48.146;11.502;2022-08-21T20:50:06;17.60;99.90
24176;DHT22;12324;48.146;11.502;2022-08-21T20:53:03;17.60;99.90
24176;DHT22;12324;48.146;11.502;2022-08-21T20:55:31;17.50;99.90
24176;DHT22;12324;48.146;11.502;2022-08-21T20:58:06;17.50;99.90
24176;DHT22;12324;48.146;11.502;2022-08-21T21:00:40;17.50;99.90
24176;DHT22;12324;48.146;11.502;2022-08-21T21:03:38;17.50;99.90
24176;DHT22;12324;48.146;11.502;2022-08-21T21:06:10;17.40;99.90
24176;DHT22;12324;48.146;11.502;2022-08-21T21:08:41;17.30;99.90
24176;DHT22;12324;48.146;11.502;2022-08-21T21:11:23;17.30;99.90
24176;DHT22;12324;48.146;11.502;2022-08-21T21:13:55;17.20;99.90
24176;DHT22;12324;48.146;11.502;2022-08-21T21:16:35;17.20;99.90
24176;DHT22;12324;48.146;11.502;2022-08-21T21:22:52;17.10;99.90
24176;DHT22;12324;48.146;11.502;2022-08-21T21:25:05;17.00;99.90
24176;DHT22;12324;48.146;11.502;2022-08-21T21:32:38;16.80;99.90
24176;DHT22;12324;48.146;11.502;2022-08-21T21:35:05;16.80;99.90
24176;DHT22;12324;48.146;11.502;2022-08-21T21:37:39;16.70;99.90
24176;DHT22;12324;48.146;11.502;2022-08-21T21:43:13;16.90;99.90
24176;DHT22;12324;48.146;11.502;2022-08-21T21:51:40;16.90;99.90
24176;DHT22;12324;48.146;11.502;2022-08-21T21:55:14;16.80;99.90
24176;DHT22;12324;48.146;11.502;2022-08-21T22:00:22;16.70;99.90
24176;DHT22;12324;48.146;11.502;2022-08-21T22:03:08;16.60;99.90
24176;DHT22;12324;48.146;11.502;2022-08-21T22:06:00;16.60;99.90
24176;DHT22;12324;48.146;11.502;2022-08-21T22:14:09;16.40;99.90
24176;DHT22;12324;48.146;11.502;2022-08-21T22:16:36;16.40;99.90
24176;DHT22;12324;48.146;11.502;2022-08-21T22:21:45;16.40;99.90
24176;DHT22;12324;48.146;11.502;2022-08-21T22:24:19;16.30;99.90
24176;DHT22;12324;48.146;11.502;2022-08-21T22:26:50;16.20;99.90
24176;DHT22;12324;48.146;11.502;2022-08-21T22:29:21;16.20;99.90
24176;DHT22;12324;48.146;11.502;2022-08-21T22:32:04;16.10;99.90
24176;DHT22;12324;48.146;11.502;2022-08-21T22:34:32;16.00;99.90
24176;DHT22;12324;48.146;11.502;2022-08-21T22:37:03;16.00;99.90
24176;DHT22;12324;48.146;11.502;2022-08-21T22:39:34;16.00;99.90
24176;DHT22;12324;48.146;11.502;2022-08-21T22:42:24;16.00;99.90
24176;DHT22;12324;48.146;11.502;2022-08-21T22:44:52;16.00;99.90
24176;DHT22;12324;48.146;11.502;2022-08-21T22:47:29;15.90;99.90
24176;DHT22;12324;48.146;11.502;2022-08-21T22:49:58;15.90;99.90
24176;DHT22;12324;48.146;11.502;2022-08-21T22:52:35;15.90;99.90
24176;DHT22;12324;48.146;11.502;2022-08-21T22:55:28;15.80;99.90
24176;DHT22;12324;48.146;11.502;2022-08-21T23:03:45;15.70;99.90
24176;DHT22;12324;48.146;11.502;2022-08-21T23:09:08;15.50;99.90
24176;DHT22;12324;48.146;11.502;2022-08-21T23:11:42;15.40;99.90
24176;DHT22;12324;48.146;11.502;2022-08-21T23:14:16;15.40;99.90
24176;DHT22;12324;48.146;11.502;2022-08-21T23:20:22;15.30;99.90
24176;DHT22;12324;48.146;11.502;2022-08-21T23:32:22;15.10;99.90
24176;DHT22;12324;48.146;11.502;2022-08-21T23:35:23;14.90;99.90
24176;DHT22;12324;48.146;11.502;2022-08-21T23:44:34;14.90;99.90
24176;DHT22;12324;48.146;11.502;2022-08-21T23:49:49;14.90;99.90
